sensor_id;sensor_type;location;lat;lon;timestamp;P1;durP1;ratioP1;P2;durP2;ratioP2
20179;SDS011;10249;48.900;9.090;2023-03-13T00:01:29;9.00;;;8.70;;
20179;SDS011;10249;48.900;9.090;2023-03-13T00:03:57;8.97;;;8.67;;
20179;SDS011;10249;48.900;9.090;2023-03-13T00:06:25;9.00;;;8.70;;
20179;SDS011;10249;48.900;9.090;2023-03-13T00:08:53;9.40;;;9.10;;
20179;SDS011;10249;48.900;9.090;2023-03-13T00:11:20;9.23;;;8.93;;
20179;SDS011;10249;48.900;9.090;2023-03-13T00:13:52;9.13;;;8.83;;
20179;SDS011;10249;48.900;9.090;2023-03-13T00:16:19;9.37;;;9.07;;
20179;SDS011;10249;48.900;9.090;2023-03-13T00:18:46;9.20;;;8.90;;
20179;SDS011;10249;48.900;9.090;2023-03-13T00:21:14;9.00;;;8.70;;
20179;SDS011;10249;48.900;9.090;2023-03-13T00:23:41;8.80;;;8.50;;
20179;SDS011;10249;48.900;9.090;2023-03-13T00:26:09;9.07;;;8.77;;
20179;SDS011;10249;48.900;9.090;2023-03-13T00:28:36;9.27;;;8.97;;
20179;SDS011;10249;48.900;9.090;2023-03-13T00:31:06;9.30;;;9.00;;
20179;SDS011;10249;48.900;9.090;2023-03-13T00:33:34;9.20;;;8.90;;
20179;SDS011;10249;48.900;9.090;2023-03-13T00:36:03;10.30;;;9.90;;
20179;SDS011;10249;48.900;9.090;2023-03-13T00:38:31;9.30;;;9.00;;
20179;SDS011;10249;48.900;9.090;2023-03-13T00:40:59;9.27;;;8.97;;
20179;SDS011;10249;48.900;9.090;2023-03-13T00:43:26;9.13;;;8.83;;
20179;SDS011;10249;48.900;9.090;2023-03-13T00:45:53;9.40;;;9.10;;
20179;SDS011;10249;48.900;9.090;2023-03-13T00:48:21;9.37;;;9.07;;
20179;SDS011;10249;48.900;9.090;2023-03-13T00:50:48;9.47;;;9.17;;
20179;SDS011;10249;48.900;9.090;2023-03-13T00:53:16;9.50;;;9.20;;
20179;SDS011;10249;48.900;9.090;2023-03-13T00:55:53;9.20;;;8.90;;
20179;SDS011;10249;48.900;9.090;2023-03-13T00:58:20;10.53;;;10.13;;
20179;SDS011;10249;48.900;9.090;2023-03-13T01:00:48;9.50;;;9.20;;
20179;SDS011;10249;48.900;9.090;2023-03-13T01:03:15;9.50;;;9.20;;
20179;SDS011;10249;48.900;9.090;2023-03-13T01:05:43;9.40;;;9.10;;
20179;SDS011;10249;48.900;9.090;2023-03-13T01:08:10;9.33;;;9.03;;
20179;SDS011;10249;48.900;9.090;2023-03-13T01:10:37;9.37;;;9.07;;
20179;SDS011;10249;48.900;9.090;2023-03-13T01:13:04;9.17;;;8.87;;
20179;SDS011;10249;48.900;9.090;2023-03-13T01:15:33;9.20;;;8.90;;
20179;SDS011;10249;48.900;9.090;2023-03-13T01:18:00;9.00;;;8.70;;
20179;SDS011;10249;48.900;9.090;2023-03-13T01:20:27;8.90;;;8.60;;
20179;SDS011;10249;48.900;9.090;2023-03-13T01:22:56;9.10;;;8.80;;
20179;SDS011;10249;48.900;9.090;2023-03-13T01:25:23;9.20;;;8.90;;
20179;SDS011;10249;48.900;9.090;2023-03-13T01:27:50;9.50;;;9.20;;
20179;SDS011;10249;48.900;9.090;2023-03-13T01:30:17;9.50;;;9.20;;
20179;SDS011;10249;48.900;9.090;2023-03-13T01:32:44;9.33;;;9.03;;
20179;SDS011;10249;48.900;9.090;2023-03-13T01:35:11;9.43;;;9.13;;
20179;SDS011;10249;48.900;9.090;2023-03-13T01:37:39;9.50;;;9.20;;
20179;SDS011;10249;48.900;9.090;2023-03-13T01:40:08;9.60;;;9.30;;
20179;SDS011;10249;48.900;9.090;2023-03-13T01:42:47;9.63;;;9.33;;
20179;SDS011;10249;48.900;9.090;2023-03-13T01:48:00;9.60;;;9.30;;
20179;SDS011;10249;48.900;9.090;2023-03-13T01:50:28;9.60;;;9.30;;
20179;SDS011;10249;48.900;9.090;2023-03-13T01:52:55;9.60;;;9.30;;
20179;SDS011;10249;48.900;9.090;2023-03-13T01:55:23;9.80;;;9.50;;
20179;SDS011;10249;48.900;9.090;2023-03-13T01:57:51;10.00;;;9.60;;
20179;SDS011;10249;48.900;9.090;2023-03-13T02:00:19;12.13;;;11.43;;
20179;SDS011;10249;48.900;9.090;2023-03-13T02:02:47;9.47;;;9.17;;
20179;SDS011;10249;48.900;9.090;2023-03-13T02:05:14;9.40;;;9.10;;
20179;SDS011;10249;48.900;9.090;2023-03-13T02:07:43;9.50;;;9.20;;
20179;SDS011;10249;48.900;9.090;2023-03-13T02:10:12;9.40;;;9.10;;
20179;SDS011;10249;48.900;9.090;2023-03-13T02:12:41;9.50;;;9.20;;
20179;SDS011;10249;48.900;9.090;2023-03-13T02:15:10;9.50;;;9.20;;
20179;SDS011;10249;48.900;9.090;2023-03-13T02:17:38;9.60;;;9.30;;
20179;SDS011;10249;48.900;9.090;2023-03-13T02:20:06;9.40;;;9.10;;
20179;SDS011;10249;48.900;9.090;2023-03-13T02:22:35;9.50;;;9.20;;
20179;SDS011;10249;48.900;9.090;2023-03-13T02:25:05;9.40;;;9.10;;
20179;SDS011;10249;48.900;9.090;2023-03-13T02:27:37;9.40;;;9.10;;
20179;SDS011;10249;48.900;9.090;2023-03-13T02:30:05;9.20;;;8.90;;
20179;SDS011;10249;48.900;9.090;2023-03-13T02:32:33;9.40;;;9.10;;
20179;SDS011;10249;48.900;9.090;2023-03-13T02:35:00;9.40;;;9.10;;
20179;SDS011;10249;48.900;9.090;2023-03-13T02:37:28;9.60;;;9.30;;
20179;SDS011;10249;48.900;9.090;2023-03-13T02:39:57;9.60;;;9.30;;
20179;SDS011;10249;48.900;9.090;2023-03-13T02:42:25;11.20;;;10.80;;
20179;SDS011;10249;48.900;9.090;2023-03-13T02:44:55;9.40;;;9.10;;
20179;SDS011;10249;48.900;9.090;2023-03-13T02:47:23;9.70;;;9.30;;
20179;SDS011;10249;48.900;9.090;2023-03-13T02:49:50;9.50;;;9.20;;
20179;SDS011;10249;48.900;9.090;2023-03-13T02:52:19;10.73;;;10.33;;
20179;SDS011;10249;48.900;9.090;2023-03-13T02:54:48;9.30;;;9.00;;
20179;SDS011;10249;48.900;9.090;2023-03-13T02:57:16;9.17;;;8.87;;
20179;SDS011;10249;48.900;9.090;2023-03-13T02:59:44;8.90;;;8.60;;
20179;SDS011;10249;48.900;9.090;2023-03-13T03:02:12;9.20;;;8.90;;
20179;SDS011;10249;48.900;9.090;2023-03-13T03:04:39;9.43;;;9.13;;
20179;SDS011;10249;48.900;9.090;2023-03-13T03:07:06;9.73;;;9.13;;
20179;SDS011;10249;48.900;9.090;2023-03-13T03:09:33;11.67;;;10.63;;
20179;SDS011;10249;48.900;9.090;2023-03-13T03:12:00;9.30;;;8.90;;
20179;SDS011;10249;48.900;9.090;2023-03-13T03:14:27;9.37;;;9.07;;
20179;SDS011;10249;48.900;9.090;2023-03-13T03:16:54;9.20;;;8.90;;
20179;SDS011;10249;48.900;9.090;2023-03-13T03:19:23;9.17;;;8.87;;
20179;SDS011;10249;48.900;9.090;2023-03-13T03:21:50;9.27;;;8.97;;
20179;SDS011;10249;48.900;9.090;2023-03-13T03:24:17;9.37;;;9.07;;
20179;SDS011;10249;48.900;9.090;2023-03-13T03:26:44;9.13;;;8.83;;
20179;SDS011;10249;48.900;9.090;2023-03-13T03:29:11;8.93;;;8.53;;
20179;SDS011;10249;48.900;9.090;2023-03-13T03:31:38;8.90;;;8.60;;
20179;SDS011;10249;48.900;9.090;2023-03-13T03:34:05;9.83;;;9.43;;
20179;SDS011;10249;48.900;9.090;2023-03-13T03:36:33;9.10;;;8.80;;
20179;SDS011;10249;48.900;9.090;2023-03-13T03:39:00;9.43;;;9.13;;
20179;SDS011;10249;48.900;9.090;2023-03-13T03:41:28;9.00;;;8.60;;
20179;SDS011;10249;48.900;9.090;2023-03-13T03:43:56;9.27;;;8.77;;
20179;SDS011;10249;48.900;9.090;2023-03-13T03:46:23;9.50;;;9.00;;
20179;SDS011;10249;48.900;9.090;2023-03-13T03:48:50;8.80;;;8.50;;
20179;SDS011;10249;48.900;9.090;2023-03-13T03:51:17;8.70;;;8.40;;
20179;SDS011;10249;48.900;9.090;2023-03-13T03:53:45;8.50;;;8.20;;
20179;SDS011;10249;48.900;9.090;2023-03-13T03:56:12;9.20;;;8.90;;
20179;SDS011;10249;48.900;9.090;2023-03-13T03:58:39;8.70;;;8.40;;
20179;SDS011;10249;48.900;9.090;2023-03-13T04:01:06;9.00;;;8.70;;
20179;SDS011;10249;48.900;9.090;2023-03-13T04:03:33;8.80;;;8.50;;
20179;SDS011;10249;48.900;9.090;2023-03-13T04:06:01;8.60;;;8.30;;
20179;SDS011;10249;48.900;9.090;2023-03-13T04:08:28;8.70;;;8.30;;
20179;SDS011;10249;48.900;9.090;2023-03-13T04:10:56;8.47;;;8.17;;
20179;SDS011;10249;48.900;9.090;2023-03-13T04:13:25;8.30;;;8.00;;
20179;SDS011;10249;48.900;9.090;2023-03-13T04:15:52;8.60;;;8.30;;
20179;SDS011;10249;48.900;9.090;2023-03-13T04:18:19;8.90;;;8.40;;
20179;SDS011;10249;48.900;9.090;2023-03-13T04:20:46;8.40;;;8.10;;
20179;SDS011;10249;48.900;9.090;2023-03-13T04:23:13;7.97;;;7.77;;
20179;SDS011;10249;48.900;9.090;2023-03-13T04:25:40;8.80;;;8.20;;
20179;SDS011;10249;48.900;9.090;2023-03-13T04:28:09;8.60;;;8.30;;
20179;SDS011;10249;48.900;9.090;2023-03-13T04:30:36;8.90;;;8.50;;
20179;SDS011;10249;48.900;9.090;2023-03-13T04:33:03;9.03;;;8.30;;
20179;SDS011;10249;48.900;9.090;2023-03-13T04:35:30;8.20;;;7.90;;
20179;SDS011;10249;48.900;9.090;2023-03-13T04:37:57;8.40;;;8.07;;
20179;SDS011;10249;48.900;9.090;2023-03-13T04:40:25;8.30;;;8.00;;
20179;SDS011;10249;48.900;9.090;2023-03-13T04:42:52;8.57;;;8.27;;
20179;SDS011;10249;48.900;9.090;2023-03-13T04:45:20;8.00;;;7.70;;
20179;SDS011;10249;48.900;9.090;2023-03-13T04:47:47;7.60;;;7.40;;
20179;SDS011;10249;48.900;9.090;2023-03-13T04:50:14;8.20;;;7.90;;
20179;SDS011;10249;48.900;9.090;2023-03-13T04:52:42;7.67;;;7.43;;
20179;SDS011;10249;48.900;9.090;2023-03-13T04:55:09;8.13;;;7.83;;
20179;SDS011;10249;48.900;9.090;2023-03-13T04:57:36;8.10;;;7.80;;
20179;SDS011;10249;48.900;9.090;2023-03-13T05:00:03;8.27;;;7.77;;
20179;SDS011;10249;48.900;9.090;2023-03-13T05:02:33;7.73;;;7.50;;
20179;SDS011;10249;48.900;9.090;2023-03-13T05:05:00;8.30;;;8.00;;
20179;SDS011;10249;48.900;9.090;2023-03-13T05:07:27;8.50;;;8.20;;
20179;SDS011;10249;48.900;9.090;2023-03-13T05:09:54;8.10;;;7.80;;
20179;SDS011;10249;48.900;9.090;2023-03-13T05:12:21;8.70;;;8.30;;
20179;SDS011;10249;48.900;9.090;2023-03-13T05:14:48;8.10;;;7.80;;
20179;SDS011;10249;48.900;9.090;2023-03-13T05:17:16;8.07;;;7.80;;
20179;SDS011;10249;48.900;9.090;2023-03-13T05:19:45;8.50;;;8.20;;
20179;SDS011;10249;48.900;9.090;2023-03-13T05:22:12;8.07;;;7.80;;
20179;SDS011;10249;48.900;9.090;2023-03-13T05:24:39;8.30;;;8.00;;
20179;SDS011;10249;48.900;9.090;2023-03-13T05:27:06;7.87;;;7.67;;
20179;SDS011;10249;48.900;9.090;2023-03-13T05:29:33;8.27;;;7.97;;
20179;SDS011;10249;48.900;9.090;2023-03-13T05:32:00;8.13;;;7.83;;
20179;SDS011;10249;48.900;9.090;2023-03-13T05:34:27;8.20;;;7.90;;
20179;SDS011;10249;48.900;9.090;2023-03-13T05:36:55;8.47;;;8.17;;
20179;SDS011;10249;48.900;9.090;2023-03-13T05:39:23;8.70;;;8.30;;
20179;SDS011;10249;48.900;9.090;2023-03-13T05:41:50;8.60;;;8.20;;
20179;SDS011;10249;48.900;9.090;2023-03-13T05:44:17;8.57;;;8.27;;
20179;SDS011;10249;48.900;9.090;2023-03-13T05:46:44;8.70;;;8.40;;
20179;SDS011;10249;48.900;9.090;2023-03-13T05:49:11;8.90;;;8.60;;
20179;SDS011;10249;48.900;9.090;2023-03-13T05:51:38;9.13;;;8.83;;
20179;SDS011;10249;48.900;9.090;2023-03-13T05:54:06;8.93;;;8.63;;
20179;SDS011;10249;48.900;9.090;2023-03-13T05:56:33;9.10;;;8.80;;
20179;SDS011;10249;48.900;9.090;2023-03-13T05:59:00;8.90;;;8.60;;
20179;SDS011;10249;48.900;9.090;2023-03-13T06:01:27;9.07;;;8.77;;
20179;SDS011;10249;48.900;9.090;2023-03-13T06:03:54;10.13;;;9.47;;
20179;SDS011;10249;48.900;9.090;2023-03-13T06:06:21;9.10;;;8.70;;
20179;SDS011;10249;48.900;9.090;2023-03-13T06:08:50;9.10;;;8.80;;
20179;SDS011;10249;48.900;9.090;2023-03-13T06:11:18;9.10;;;8.67;;
20179;SDS011;10249;48.900;9.090;2023-03-13T06:13:45;9.30;;;8.90;;
20179;SDS011;10249;48.900;9.090;2023-03-13T06:16:13;9.00;;;8.70;;
20179;SDS011;10249;48.900;9.090;2023-03-13T06:18:40;9.30;;;9.00;;
20179;SDS011;10249;48.900;9.090;2023-03-13T06:21:07;9.77;;;9.10;;
20179;SDS011;10249;48.900;9.090;2023-03-13T06:23:34;9.10;;;8.80;;
20179;SDS011;10249;48.900;9.090;2023-03-13T06:26:01;9.30;;;9.00;;
20179;SDS011;10249;48.900;9.090;2023-03-13T06:28:29;9.37;;;9.07;;
20179;SDS011;10249;48.900;9.090;2023-03-13T06:30:59;9.20;;;8.90;;
20179;SDS011;10249;48.900;9.090;2023-03-13T06:33:26;9.30;;;9.00;;
20179;SDS011;10249;48.900;9.090;2023-03-13T06:35:54;9.37;;;8.97;;
20179;SDS011;10249;48.900;9.090;2023-03-13T06:38:22;9.30;;;9.00;;
20179;SDS011;10249;48.900;9.090;2023-03-13T06:40:49;9.70;;;9.30;;
20179;SDS011;10249;48.900;9.090;2023-03-13T06:43:16;9.30;;;9.00;;
20179;SDS011;10249;48.900;9.090;2023-03-13T06:45:45;9.20;;;8.90;;
20179;SDS011;10249;48.900;9.090;2023-03-13T06:48:12;9.37;;;9.07;;
20179;SDS011;10249;48.900;9.090;2023-03-13T06:50:39;9.30;;;9.00;;
20179;SDS011;10249;48.900;9.090;2023-03-13T06:53:06;9.40;;;9.10;;
20179;SDS011;10249;48.900;9.090;2023-03-13T06:55:34;9.30;;;9.00;;
20179;SDS011;10249;48.900;9.090;2023-03-13T06:58:01;9.20;;;8.90;;
20179;SDS011;10249;48.900;9.090;2023-03-13T07:00:28;9.77;;;9.47;;
20179;SDS011;10249;48.900;9.090;2023-03-13T07:02:56;9.30;;;9.00;;
20179;SDS011;10249;48.900;9.090;2023-03-13T07:05:23;9.00;;;8.70;;
20179;SDS011;10249;48.900;9.090;2023-03-13T07:07:50;8.70;;;8.40;;
20179;SDS011;10249;48.900;9.090;2023-03-13T07:10:17;8.77;;;8.43;;
20179;SDS011;10249;48.900;9.090;2023-03-13T07:12:44;8.70;;;8.40;;
20179;SDS011;10249;48.900;9.090;2023-03-13T07:15:11;9.00;;;8.70;;
20179;SDS011;10249;48.900;9.090;2023-03-13T07:17:38;9.20;;;8.90;;
20179;SDS011;10249;48.900;9.090;2023-03-13T07:20:08;8.57;;;8.27;;
20179;SDS011;10249;48.900;9.090;2023-03-13T07:22:35;8.80;;;8.50;;
20179;SDS011;10249;48.900;9.090;2023-03-13T07:25:02;8.77;;;8.47;;
20179;SDS011;10249;48.900;9.090;2023-03-13T07:27:30;8.70;;;8.40;;
20179;SDS011;10249;48.900;9.090;2023-03-13T07:29:57;9.10;;;8.80;;
20179;SDS011;10249;48.900;9.090;2023-03-13T07:32:24;8.87;;;8.57;;
20179;SDS011;10249;48.900;9.090;2023-03-13T07:34:51;8.97;;;8.67;;
20179;SDS011;10249;48.900;9.090;2023-03-13T07:37:19;9.70;;;9.20;;
20179;SDS011;10249;48.900;9.090;2023-03-13T07:39:46;8.80;;;8.50;;
20179;SDS011;10249;48.900;9.090;2023-03-13T07:42:14;8.60;;;8.30;;
20179;SDS011;10249;48.900;9.090;2023-03-13T07:44:41;8.60;;;8.30;;
20179;SDS011;10249;48.900;9.090;2023-03-13T07:47:08;8.50;;;8.20;;
20179;SDS011;10249;48.900;9.090;2023-03-13T07:49:35;8.60;;;8.30;;
20179;SDS011;10249;48.900;9.090;2023-03-13T07:52:06;8.80;;;8.50;;
20179;SDS011;10249;48.900;9.090;2023-03-13T07:54:35;8.87;;;8.57;;
20179;SDS011;10249;48.900;9.090;2023-03-13T07:57:05;8.83;;;8.53;;
20179;SDS011;10249;48.900;9.090;2023-03-13T07:59:32;8.80;;;8.50;;
20179;SDS011;10249;48.900;9.090;2023-03-13T08:02:00;8.90;;;8.60;;
20179;SDS011;10249;48.900;9.090;2023-03-13T08:04:30;9.10;;;8.80;;
20179;SDS011;10249;48.900;9.090;2023-03-13T08:06:57;9.10;;;8.80;;
20179;SDS011;10249;48.900;9.090;2023-03-13T08:09:24;9.77;;;9.10;;
20179;SDS011;10249;48.900;9.090;2023-03-13T08:11:53;9.10;;;8.80;;
20179;SDS011;10249;48.900;9.090;2023-03-13T08:14:20;9.50;;;9.20;;
20179;SDS011;10249;48.900;9.090;2023-03-13T08:16:47;9.30;;;9.00;;
20179;SDS011;10249;48.900;9.090;2023-03-13T08:19:14;9.70;;;9.40;;
20179;SDS011;10249;48.900;9.090;2023-03-13T08:21:41;9.80;;;9.50;;
20179;SDS011;10249;48.900;9.090;2023-03-13T08:24:09;9.50;;;9.20;;
20179;SDS011;10249;48.900;9.090;2023-03-13T08:26:38;9.87;;;9.57;;
20179;SDS011;10249;48.900;9.090;2023-03-13T08:29:07;9.97;;;9.57;;
20179;SDS011;10249;48.900;9.090;2023-03-13T08:31:36;9.80;;;9.50;;
20179;SDS011;10249;48.900;9.090;2023-03-13T08:34:03;10.37;;;9.97;;
20179;SDS011;10249;48.900;9.090;2023-03-13T08:36:31;10.13;;;9.73;;
20179;SDS011;10249;48.900;9.090;2023-03-13T08:38:59;10.50;;;10.10;;
20179;SDS011;10249;48.900;9.090;2023-03-13T08:41:27;10.37;;;9.97;;
20179;SDS011;10249;48.900;9.090;2023-03-13T08:43:55;10.40;;;10.00;;
20179;SDS011;10249;48.900;9.090;2023-03-13T08:46:24;10.80;;;10.40;;
20179;SDS011;10249;48.900;9.090;2023-03-13T08:48:51;10.87;;;10.47;;
20179;SDS011;10249;48.900;9.090;2023-03-13T08:51:19;10.97;;;10.47;;
20179;SDS011;10249;48.900;9.090;2023-03-13T08:53:47;10.90;;;10.50;;
20179;SDS011;10249;48.900;9.090;2023-03-13T08:56:15;11.20;;;10.70;;
20179;SDS011;10249;48.900;9.090;2023-03-13T08:58:43;11.30;;;10.70;;
20179;SDS011;10249;48.900;9.090;2023-03-13T09:01:10;11.10;;;10.60;;
20179;SDS011;10249;48.900;9.090;2023-03-13T09:03:39;11.10;;;10.70;;
20179;SDS011;10249;48.900;9.090;2023-03-13T09:06:07;10.87;;;10.47;;
20179;SDS011;10249;48.900;9.090;2023-03-13T09:08:35;10.70;;;10.30;;
20179;SDS011;10249;48.900;9.090;2023-03-13T09:11:03;11.07;;;10.57;;
20179;SDS011;10249;48.900;9.090;2023-03-13T09:13:30;11.23;;;10.77;;
20179;SDS011;10249;48.900;9.090;2023-03-13T09:15:59;11.03;;;10.63;;
20179;SDS011;10249;48.900;9.090;2023-03-13T09:18:26;11.33;;;10.93;;
20179;SDS011;10249;48.900;9.090;2023-03-13T09:20:54;10.87;;;10.47;;
20179;SDS011;10249;48.900;9.090;2023-03-13T09:23:22;11.87;;;11.37;;
20179;SDS011;10249;48.900;9.090;2023-03-13T09:25:51;13.03;;;12.33;;
20179;SDS011;10249;48.900;9.090;2023-03-13T09:28:18;12.47;;;11.90;;
20179;SDS011;10249;48.900;9.090;2023-03-13T09:30:45;12.53;;;12.03;;
20179;SDS011;10249;48.900;9.090;2023-03-13T09:33:13;12.70;;;12.20;;
20179;SDS011;10249;48.900;9.090;2023-03-13T09:35:41;12.60;;;12.10;;
20179;SDS011;10249;48.900;9.090;2023-03-13T09:38:12;12.70;;;12.20;;
20179;SDS011;10249;48.900;9.090;2023-03-13T09:40:40;13.33;;;12.63;;
20179;SDS011;10249;48.900;9.090;2023-03-13T09:43:12;13.10;;;12.60;;
20179;SDS011;10249;48.900;9.090;2023-03-13T09:45:45;12.73;;;12.23;;
20179;SDS011;10249;48.900;9.090;2023-03-13T09:48:16;13.80;;;13.10;;
20179;SDS011;10249;48.900;9.090;2023-03-13T09:50:46;13.33;;;12.73;;
20179;SDS011;10249;48.900;9.090;2023-03-13T09:53:22;12.80;;;12.20;;
20179;SDS011;10249;48.900;9.090;2023-03-13T09:55:52;13.33;;;12.63;;
20179;SDS011;10249;48.900;9.090;2023-03-13T09:58:21;12.80;;;12.30;;
20179;SDS011;10249;48.900;9.090;2023-03-13T10:00:50;13.43;;;12.73;;
20179;SDS011;10249;48.900;9.090;2023-03-13T10:03:19;12.60;;;11.90;;
20179;SDS011;10249;48.900;9.090;2023-03-13T10:05:49;13.10;;;12.50;;
20179;SDS011;10249;48.900;9.090;2023-03-13T10:08:17;13.30;;;12.50;;
20179;SDS011;10249;48.900;9.090;2023-03-13T10:10:49;13.70;;;13.00;;
20179;SDS011;10249;48.900;9.090;2023-03-13T10:13:18;13.67;;;13.07;;
20179;SDS011;10249;48.900;9.090;2023-03-13T10:15:48;13.90;;;13.30;;
20179;SDS011;10249;48.900;9.090;2023-03-13T10:18:17;14.47;;;13.70;;
20179;SDS011;10249;48.900;9.090;2023-03-13T10:20:46;13.20;;;12.60;;
20179;SDS011;10249;48.900;9.090;2023-03-13T10:23:14;13.93;;;13.23;;
20179;SDS011;10249;48.900;9.090;2023-03-13T10:25:42;13.50;;;12.90;;
20179;SDS011;10249;48.900;9.090;2023-03-13T10:28:11;13.97;;;13.10;;
20179;SDS011;10249;48.900;9.090;2023-03-13T10:30:39;13.87;;;13.17;;
20179;SDS011;10249;48.900;9.090;2023-03-13T10:33:17;14.33;;;13.53;;
20179;SDS011;10249;48.900;9.090;2023-03-13T10:35:45;13.90;;;13.30;;
20179;SDS011;10249;48.900;9.090;2023-03-13T10:38:12;13.93;;;13.23;;
20179;SDS011;10249;48.900;9.090;2023-03-13T10:40:40;13.70;;;13.00;;
20179;SDS011;10249;48.900;9.090;2023-03-13T10:43:14;13.67;;;13.07;;
20179;SDS011;10249;48.900;9.090;2023-03-13T10:45:43;14.10;;;13.20;;
20179;SDS011;10249;48.900;9.090;2023-03-13T10:48:11;13.83;;;13.13;;
20179;SDS011;10249;48.900;9.090;2023-03-13T10:50:40;14.60;;;13.90;;
20179;SDS011;10249;48.900;9.090;2023-03-13T10:53:19;14.57;;;13.77;;
20179;SDS011;10249;48.900;9.090;2023-03-13T10:55:46;13.60;;;13.00;;
20179;SDS011;10249;48.900;9.090;2023-03-13T10:58:17;13.90;;;13.20;;
20179;SDS011;10249;48.900;9.090;2023-03-13T11:00:45;14.13;;;13.53;;
20179;SDS011;10249;48.900;9.090;2023-03-13T11:03:13;14.60;;;13.70;;
20179;SDS011;10249;48.900;9.090;2023-03-13T11:05:42;14.50;;;13.80;;
20179;SDS011;10249;48.900;9.090;2023-03-13T11:08:10;14.20;;;13.50;;
20179;SDS011;10249;48.900;9.090;2023-03-13T11:10:38;14.20;;;13.50;;
20179;SDS011;10249;48.900;9.090;2023-03-13T11:13:27;13.97;;;13.37;;
20179;SDS011;10249;48.900;9.090;2023-03-13T11:15:55;15.00;;;14.20;;
20179;SDS011;10249;48.900;9.090;2023-03-13T11:18:23;14.40;;;13.70;;
20179;SDS011;10249;48.900;9.090;2023-03-13T11:20:55;14.10;;;13.40;;
20179;SDS011;10249;48.900;9.090;2023-03-13T11:23:23;14.50;;;13.80;;
20179;SDS011;10249;48.900;9.090;2023-03-13T11:25:57;14.20;;;13.60;;
20179;SDS011;10249;48.900;9.090;2023-03-13T11:28:30;15.73;;;14.73;;
20179;SDS011;10249;48.900;9.090;2023-03-13T11:31:02;13.73;;;13.13;;
20179;SDS011;10249;48.900;9.090;2023-03-13T11:33:35;14.70;;;14.00;;
20179;SDS011;10249;48.900;9.090;2023-03-13T11:36:06;14.70;;;13.90;;
20179;SDS011;10249;48.900;9.090;2023-03-13T11:38:38;13.90;;;13.30;;
20179;SDS011;10249;48.900;9.090;2023-03-13T11:41:17;14.17;;;13.47;;
20179;SDS011;10249;48.900;9.090;2023-03-13T11:43:54;14.20;;;13.50;;
20179;SDS011;10249;48.900;9.090;2023-03-13T11:46:29;14.40;;;13.63;;
20179;SDS011;10249;48.900;9.090;2023-03-13T11:49:03;14.27;;;13.57;;
20179;SDS011;10249;48.900;9.090;2023-03-13T11:51:37;14.50;;;13.80;;
20179;SDS011;10249;48.900;9.090;2023-03-13T11:56:59;15.17;;;14.37;;
20179;SDS011;10249;48.900;9.090;2023-03-13T11:59:33;14.60;;;13.80;;
20179;SDS011;10249;48.900;9.090;2023-03-13T12:02:04;15.43;;;14.50;;
20179;SDS011;10249;48.900;9.090;2023-03-13T12:04:33;14.80;;;14.10;;
20179;SDS011;10249;48.900;9.090;2023-03-13T12:07:02;14.87;;;14.17;;
20179;SDS011;10249;48.900;9.090;2023-03-13T12:09:32;14.77;;;14.07;;
20179;SDS011;10249;48.900;9.090;2023-03-13T12:12:00;15.30;;;14.60;;
20179;SDS011;10249;48.900;9.090;2023-03-13T12:14:30;15.60;;;14.80;;
20179;SDS011;10249;48.900;9.090;2023-03-13T12:17:00;15.20;;;14.40;;
20179;SDS011;10249;48.900;9.090;2023-03-13T12:19:29;15.60;;;14.80;;
20179;SDS011;10249;48.900;9.090;2023-03-13T12:22:00;16.87;;;15.77;;
20179;SDS011;10249;48.900;9.090;2023-03-13T12:24:31;15.80;;;15.00;;
20179;SDS011;10249;48.900;9.090;2023-03-13T12:27:00;17.03;;;15.80;;
20179;SDS011;10249;48.900;9.090;2023-03-13T12:29:37;15.93;;;15.13;;
20179;SDS011;10249;48.900;9.090;2023-03-13T12:32:10;16.27;;;15.37;;
20179;SDS011;10249;48.900;9.090;2023-03-13T12:34:42;15.90;;;14.90;;
20179;SDS011;10249;48.900;9.090;2023-03-13T12:37:15;15.50;;;14.70;;
20179;SDS011;10249;48.900;9.090;2023-03-13T12:39:44;15.50;;;14.70;;
20179;SDS011;10249;48.900;9.090;2023-03-13T12:42:19;15.93;;;15.07;;
20179;SDS011;10249;48.900;9.090;2023-03-13T12:44:49;16.53;;;15.63;;
20179;SDS011;10249;48.900;9.090;2023-03-13T12:47:18;16.70;;;15.80;;
20179;SDS011;10249;48.900;9.090;2023-03-13T12:49:58;16.73;;;15.27;;
20179;SDS011;10249;48.900;9.090;2023-03-13T12:52:33;15.90;;;15.10;;
20179;SDS011;10249;48.900;9.090;2023-03-13T12:58:02;15.93;;;14.90;;
20179;SDS011;10249;48.900;9.090;2023-03-13T13:00:34;15.50;;;14.73;;
20179;SDS011;10249;48.900;9.090;2023-03-13T13:03:06;16.03;;;15.23;;
20179;SDS011;10249;48.900;9.090;2023-03-13T13:05:35;15.13;;;14.33;;
20179;SDS011;10249;48.900;9.090;2023-03-13T13:08:02;15.50;;;14.70;;
20179;SDS011;10249;48.900;9.090;2023-03-13T13:10:30;16.10;;;15.20;;
20179;SDS011;10249;48.900;9.090;2023-03-13T13:13:16;16.57;;;15.70;;
20179;SDS011;10249;48.900;9.090;2023-03-13T13:15:44;15.40;;;14.60;;
20179;SDS011;10249;48.900;9.090;2023-03-13T13:18:14;15.70;;;14.80;;
20179;SDS011;10249;48.900;9.090;2023-03-13T13:20:43;15.20;;;14.43;;
20179;SDS011;10249;48.900;9.090;2023-03-13T13:23:24;14.53;;;13.73;;
20179;SDS011;10249;48.900;9.090;2023-03-13T13:25:52;16.60;;;15.70;;
20179;SDS011;10249;48.900;9.090;2023-03-13T13:28:24;16.33;;;15.53;;
20179;SDS011;10249;48.900;9.090;2023-03-13T13:30:54;16.33;;;15.53;;
20179;SDS011;10249;48.900;9.090;2023-03-13T13:33:37;16.23;;;15.43;;
20179;SDS011;10249;48.900;9.090;2023-03-13T13:38:50;15.80;;;14.90;;
20179;SDS011;10249;48.900;9.090;2023-03-13T13:41:21;15.20;;;14.40;;
20179;SDS011;10249;48.900;9.090;2023-03-13T13:43:50;15.27;;;14.47;;
20179;SDS011;10249;48.900;9.090;2023-03-13T13:46:39;15.70;;;14.90;;
20179;SDS011;10249;48.900;9.090;2023-03-13T13:49:13;16.00;;;15.20;;
20179;SDS011;10249;48.900;9.090;2023-03-13T13:51:40;15.97;;;15.07;;
20179;SDS011;10249;48.900;9.090;2023-03-13T13:56:50;15.70;;;14.90;;
20179;SDS011;10249;48.900;9.090;2023-03-13T13:59:26;16.17;;;15.37;;
20179;SDS011;10249;48.900;9.090;2023-03-13T14:02:13;16.30;;;15.40;;
20179;SDS011;10249;48.900;9.090;2023-03-13T14:04:41;16.43;;;15.40;;
20179;SDS011;10249;48.900;9.090;2023-03-13T14:07:10;16.00;;;15.20;;
20179;SDS011;10249;48.900;9.090;2023-03-13T14:09:42;16.17;;;15.27;;
20179;SDS011;10249;48.900;9.090;2023-03-13T14:12:23;16.10;;;15.20;;
20179;SDS011;10249;48.900;9.090;2023-03-13T14:15:04;16.00;;;15.10;;
20179;SDS011;10249;48.900;9.090;2023-03-13T14:17:37;15.97;;;14.70;;
20179;SDS011;10249;48.900;9.090;2023-03-13T14:20:05;15.80;;;15.00;;
20179;SDS011;10249;48.900;9.090;2023-03-13T14:22:45;15.60;;;14.80;;
20179;SDS011;10249;48.900;9.090;2023-03-13T14:25:12;15.80;;;15.00;;
20179;SDS011;10249;48.900;9.090;2023-03-13T14:27:41;16.27;;;15.37;;
20179;SDS011;10249;48.900;9.090;2023-03-13T14:30:09;15.83;;;15.00;;
20179;SDS011;10249;48.900;9.090;2023-03-13T14:32:38;16.30;;;15.30;;
20179;SDS011;10249;48.900;9.090;2023-03-13T14:35:06;15.50;;;14.70;;
20179;SDS011;10249;48.900;9.090;2023-03-13T14:37:34;15.45;;;14.65;;
20179;SDS011;10249;48.900;9.090;2023-03-13T14:40:05;15.60;;;14.70;;
20179;SDS011;10249;48.900;9.090;2023-03-13T14:42:37;15.50;;;14.70;;
20179;SDS011;10249;48.900;9.090;2023-03-13T14:45:11;15.85;;;14.95;;
20179;SDS011;10249;48.900;9.090;2023-03-13T14:47:40;15.60;;;14.80;;
20179;SDS011;10249;48.900;9.090;2023-03-13T14:50:09;16.17;;;15.27;;
20179;SDS011;10249;48.900;9.090;2023-03-13T14:52:40;16.30;;;15.40;;
20179;SDS011;10249;48.900;9.090;2023-03-13T14:55:24;15.80;;;15.00;;
20179;SDS011;10249;48.900;9.090;2023-03-13T14:57:55;15.68;;;14.88;;
20179;SDS011;10249;48.900;9.090;2023-03-13T15:03:22;15.80;;;14.90;;